Terminal Aerodrome Forecast
Issued by NWS Tampa Bay Area, FL

Home | Current Version | Previous Version | Text Only | Print | Product List | Glossary On
Versions: 1 2 3 4 5 6 7 8 9 10 11 12 13 14 15 16 17 18 19 20 21 22 23
000
FTUS42 KTBW 182100 AAB
TAFSRQ
TAF AMD
KSRQ 182108Z 1821/1918 19010KT P6SM SCT030 BKN060 OVC130
      TEMPO 1821/1824 -SHRA BKN030
     FM190000 19012KT P6SM VCSH SCT020 BKN060 OVC150
     FM190600 21014KT P6SM BKN020 OVC060
     FM191200 24014KT P6SM SCT020 BKN030=

USA.gov is the U.S. government's official web portal to all federal, state and local government web resources and services.